createdAt,value
2023-02-16T00:01:25.916Z,100982.97
2023-02-16T00:03:55.569Z,100978.94
2023-02-16T00:06:23.454Z,100981.59
2023-02-16T00:08:53.293Z,100979.44
2023-02-16T00:11:47.496Z,100981.09
2023-02-16T00:14:15.318Z,100976.25
2023-02-16T00:16:43.262Z,100975.69
2023-02-16T00:19:19.695Z,100974.09
2023-02-16T00:21:47.582Z,100971.66
2023-02-16T00:24:15.330Z,100976.47
2023-02-16T00:26:45.504Z,100974.00
2023-02-16T00:29:19.706Z,100976.63
2023-02-16T00:31:47.540Z,100978.72
2023-02-16T00:34:31.549Z,100974.59
2023-02-16T00:37:02.837Z,100978.84
2023-02-16T00:39:31.044Z,100977.44
2023-02-16T00:42:04.730Z,100979.56
2023-02-16T00:44:36.614Z,100970.31
2023-02-16T00:47:11.508Z,100977.03
2023-02-16T00:49:39.165Z,100975.56
2023-02-16T00:52:23.987Z,100971.28
2023-02-16T00:54:51.621Z,100965.81
2023-02-16T00:57:21.368Z,100966.78
2023-02-16T00:59:56.008Z,100960.31
2023-02-16T01:02:23.711Z,100973.44
2023-02-16T01:04:51.677Z,100971.81
2023-02-16T01:07:38.741Z,100978.25
2023-02-16T01:10:25.222Z,100984.31
2023-02-16T01:12:54.317Z,100978.03
2023-02-16T01:15:25.560Z,100976.59
2023-02-16T01:17:53.652Z,100975.66
2023-02-16T01:20:25.452Z,100971.53
2023-02-16T01:22:53.316Z,100970.13
2023-02-16T01:25:21.441Z,100967.97
2023-02-16T01:27:50.273Z,100945.84
2023-02-16T01:30:21.625Z,100964.41
2023-02-16T01:32:51.855Z,100971.16
2023-02-16T01:35:19.909Z,100971.69
2023-02-16T01:37:47.675Z,100965.69
2023-02-16T01:40:31.460Z,100963.13
2023-02-16T01:43:04.977Z,100967.44
2023-02-16T01:45:36.811Z,100962.41
2023-02-16T01:48:08.109Z,100963.94
2023-02-16T01:50:44.777Z,100954.19
2023-02-16T01:53:21.327Z,100957.88
2023-02-16T01:55:53.541Z,100959.34
2023-02-16T01:58:32.620Z,100954.72
2023-02-16T02:01:33.762Z,100956.34
2023-02-16T02:04:19.164Z,100954.72
2023-02-16T02:06:47.989Z,100963.69
2023-02-16T02:09:20.812Z,100954.06
2023-02-16T02:11:53.616Z,100956.50
2023-02-16T02:14:25.208Z,100951.75
2023-02-16T02:16:57.034Z,100942.31
2023-02-16T02:19:25.816Z,100937.38
2023-02-16T02:22:38.150Z,100936.91
2023-02-16T02:25:41.559Z,100922.88
2023-02-16T02:28:20.375Z,100933.06
2023-02-16T02:30:53.659Z,100913.56
2023-02-16T02:33:33.944Z,100924.09
2023-02-16T02:36:16.653Z,100903.41
2023-02-16T02:38:59.574Z,100896.34
2023-02-16T02:41:47.238Z,100906.63
2023-02-16T02:44:21.263Z,100917.91
2023-02-16T02:46:50.767Z,100901.84
2023-02-16T02:49:19.894Z,100925.34
2023-02-16T02:51:48.193Z,100928.03
2023-02-16T02:54:37.709Z,100923.47
2023-02-16T02:57:32.384Z,100922.63
2023-02-16T03:00:24.649Z,100919.09
2023-02-16T03:02:56.306Z,100920.91
2023-02-16T03:05:27.364Z,100931.56
2023-02-16T03:08:14.198Z,100945.81
2023-02-16T03:11:04.082Z,100932.03
2023-02-16T03:13:36.908Z,100948.28
2023-02-16T03:16:12.277Z,100936.16
2023-02-16T03:18:59.890Z,100937.22
2023-02-16T03:21:47.111Z,100930.19
2023-02-16T03:24:41.884Z,100928.78
2023-02-16T03:27:28.233Z,100932.81
2023-02-16T03:29:57.851Z,100941.47
2023-02-16T03:32:28.574Z,100942.03
2023-02-16T03:34:56.365Z,100938.75
2023-02-16T03:37:24.343Z,100939.81
2023-02-16T03:40:09.745Z,100940.34
2023-02-16T03:42:37.575Z,100931.22
2023-02-16T03:45:06.096Z,100934.94
2023-02-16T03:47:35.218Z,100934.13
2023-02-16T03:50:03.216Z,100937.31
2023-02-16T03:52:31.034Z,100933.75
2023-02-16T03:55:00.437Z,100935.47
2023-02-16T03:57:28.260Z,100936.91
2023-02-16T03:59:57.714Z,100949.56
2023-02-16T04:02:27.465Z,100951.47
2023-02-16T04:04:56.679Z,100943.63
2023-02-16T04:07:24.426Z,100945.81
2023-02-16T04:09:52.235Z,100943.75
2023-02-16T04:12:37.051Z,100944.25
2023-02-16T04:15:07.064Z,100941.25
2023-02-16T04:17:34.901Z,100934.72
2023-02-16T04:20:04.623Z,100948.25
2023-02-16T04:22:32.732Z,100944.63
2023-02-16T04:25:00.706Z,100962.16
2023-02-16T04:27:28.493Z,100951.34
2023-02-16T04:29:56.311Z,100955.97
2023-02-16T04:32:24.192Z,100946.25
2023-02-16T04:34:52.024Z,100951.69
2023-02-16T04:37:21.215Z,100938.69
2023-02-16T04:39:48.988Z,100935.38
2023-02-16T04:42:17.008Z,100929.84
2023-02-16T04:44:44.928Z,100926.22
2023-02-16T04:47:12.696Z,100934.03
2023-02-16T04:49:40.563Z,100946.16
2023-02-16T04:52:08.666Z,100946.81
2023-02-16T04:54:37.840Z,100935.09
2023-02-16T04:57:05.915Z,100941.41
2023-02-16T04:59:33.775Z,100933.88
2023-02-16T05:02:01.597Z,100927.19
2023-02-16T05:04:29.737Z,100916.91
2023-02-16T05:06:57.691Z,100913.44
2023-02-16T05:09:25.688Z,100917.50
2023-02-16T05:12:17.508Z,100918.47
2023-02-16T05:14:46.020Z,100932.81
2023-02-16T05:17:16.171Z,100934.47
2023-02-16T05:19:46.500Z,100928.53
2023-02-16T05:22:15.283Z,100937.47
2023-02-16T05:24:43.611Z,100932.81
2023-02-16T05:27:16.872Z,100950.31
2023-02-16T05:29:44.731Z,100931.13
2023-02-16T05:32:12.558Z,100934.06
2023-02-16T05:34:40.297Z,100940.03
2023-02-16T05:37:08.253Z,100933.50
2023-02-16T05:39:36.124Z,100932.69
2023-02-16T05:42:04.172Z,100934.16
2023-02-16T05:44:33.388Z,100930.13
2023-02-16T05:47:01.158Z,100940.34
2023-02-16T05:49:29.230Z,100940.56
2023-02-16T05:51:57.046Z,100950.53
2023-02-16T05:54:25.111Z,100961.59
2023-02-16T05:56:53.631Z,100959.00
2023-02-16T05:59:21.656Z,100955.72
2023-02-16T06:01:52.195Z,100888.72
2023-02-16T06:04:21.954Z,100953.41
2023-02-16T06:06:50.418Z,100948.50
2023-02-16T06:09:18.303Z,100946.28
2023-02-16T06:11:46.146Z,100954.16
2023-02-16T06:14:15.899Z,100946.06
2023-02-16T06:16:45.378Z,100956.31
2023-02-16T06:19:15.501Z,100956.59
2023-02-16T06:21:43.609Z,100967.19
2023-02-16T06:24:13.262Z,100958.59
2023-02-16T06:26:41.282Z,100970.75
2023-02-16T06:29:11.278Z,100956.66
2023-02-16T06:31:39.190Z,100964.19
2023-02-16T06:34:07.147Z,100974.72
2023-02-16T06:36:36.370Z,100974.75
2023-02-16T06:39:04.575Z,100964.25
2023-02-16T06:41:34.289Z,100963.09
2023-02-16T06:44:03.781Z,100976.88
2023-02-16T06:46:31.804Z,100980.56
2023-02-16T06:49:00.032Z,100985.41
2023-02-16T06:51:28.127Z,100994.56
2023-02-16T06:53:57.337Z,101007.03
2023-02-16T06:56:25.727Z,101004.28
2023-02-16T06:58:53.530Z,100997.00
2023-02-16T07:01:23.415Z,101002.06
2023-02-16T07:03:51.576Z,100999.59
2023-02-16T07:06:19.715Z,101002.06
2023-02-16T07:08:47.631Z,101003.38
2023-02-16T07:11:18.238Z,101006.81
2023-02-16T07:13:46.516Z,100994.84
2023-02-16T07:16:15.403Z,101009.28
2023-02-16T07:18:43.719Z,100990.97
2023-02-16T07:21:11.616Z,101005.97
2023-02-16T07:23:39.255Z,101005.78
2023-02-16T07:26:07.028Z,101004.41
2023-02-16T07:28:36.097Z,100999.69
2023-02-16T07:31:08.446Z,100997.94
2023-02-16T07:33:36.335Z,100996.78
2023-02-16T07:36:04.499Z,100999.50
2023-02-16T07:38:32.264Z,100996.28
2023-02-16T07:41:00.357Z,100977.69
2023-02-16T07:43:28.125Z,100982.75
2023-02-16T07:45:57.432Z,100991.38
2023-02-16T07:48:25.398Z,100993.03
2023-02-16T07:50:53.264Z,100956.72
2023-02-16T07:53:20.945Z,100990.84
2023-02-16T07:55:48.643Z,100988.69
2023-02-16T07:58:27.385Z,100981.34
2023-02-16T08:00:57.881Z,100973.38
2023-02-16T08:03:25.677Z,100996.16
2023-02-16T08:05:53.514Z,100989.28
2023-02-16T08:08:21.130Z,100993.00
2023-02-16T08:10:49.046Z,100996.38
2023-02-16T08:13:16.761Z,100997.66
2023-02-16T08:15:45.136Z,100971.13
2023-02-16T08:18:15.151Z,100996.81
2023-02-16T08:21:01.466Z,101003.41
2023-02-16T08:23:31.334Z,101001.66
2023-02-16T08:25:59.582Z,101004.38
2023-02-16T08:28:28.835Z,101013.59
2023-02-16T08:30:56.945Z,101006.34
2023-02-16T08:33:26.118Z,100998.44
2023-02-16T08:35:54.041Z,101002.09
2023-02-16T08:38:22.828Z,101009.44
2023-02-16T08:40:50.877Z,101006.72
2023-02-16T08:43:18.750Z,100998.81
2023-02-16T08:45:47.504Z,101004.94
2023-02-16T08:48:16.581Z,100996.03
2023-02-16T08:50:53.173Z,101005.84
2023-02-16T08:53:23.016Z,101002.38
2023-02-16T08:55:55.658Z,100999.13
2023-02-16T08:58:24.396Z,101003.22
2023-02-16T09:00:52.301Z,101003.69
2023-02-16T09:03:20.713Z,101003.63
2023-02-16T09:05:51.124Z,101015.41
2023-02-16T09:08:19.150Z,101011.66
2023-02-16T09:10:46.859Z,101013.72
2023-02-16T09:13:16.099Z,101002.75
2023-02-16T09:15:44.008Z,101007.59
2023-02-16T09:18:12.611Z,101009.41
2023-02-16T09:20:41.123Z,101007.38
2023-02-16T09:23:12.284Z,101010.31
2023-02-16T09:25:41.783Z,101008.28
2023-02-16T09:28:09.610Z,101015.13
2023-02-16T09:30:39.356Z,101015.66
2023-02-16T09:33:07.725Z,100989.00
2023-02-16T09:35:35.440Z,101008.25
2023-02-16T09:38:03.591Z,101007.53
2023-02-16T09:40:32.666Z,101019.16
2023-02-16T09:43:09.381Z,101021.56
2023-02-16T09:45:42.893Z,101017.84
2023-02-16T09:48:30.313Z,101024.75
2023-02-16T09:51:01.343Z,101024.22
2023-02-16T09:53:39.407Z,101026.69
2023-02-16T09:56:18.850Z,101027.97
2023-02-16T09:58:52.921Z,100987.97
2023-02-16T10:01:31.790Z,101019.19
2023-02-16T10:04:17.374Z,101005.94
2023-02-16T10:06:58.296Z,101001.00
2023-02-16T10:09:27.741Z,101009.69
2023-02-16T10:12:03.450Z,101009.06
2023-02-16T10:14:37.059Z,101005.06
2023-02-16T10:17:15.159Z,101005.88
2023-02-16T10:19:49.310Z,101000.22
2023-02-16T10:22:20.921Z,100998.06
2023-02-16T10:25:00.236Z,100995.91
2023-02-16T10:27:37.925Z,101001.31
2023-02-16T10:30:13.457Z,101002.78
2023-02-16T10:32:53.898Z,101001.03
2023-02-16T10:35:31.416Z,101000.19
2023-02-16T10:38:05.955Z,100990.78
2023-02-16T10:40:45.110Z,100995.59
2023-02-16T10:43:19.099Z,100993.44
2023-02-16T10:45:52.335Z,100979.44
2023-02-16T10:48:21.761Z,100976.56
2023-02-16T10:50:58.382Z,101001.50
2023-02-16T10:53:39.121Z,100993.38
2023-02-16T10:56:29.891Z,100984.53
2023-02-16T10:59:00.285Z,100988.31
2023-02-16T11:01:36.006Z,100980.59
2023-02-16T11:04:04.044Z,100975.09
2023-02-16T11:06:31.880Z,100968.25
2023-02-16T11:09:01.894Z,100967.78
2023-02-16T11:11:37.761Z,100956.59
2023-02-16T11:14:09.294Z,100957.81
2023-02-16T11:16:37.229Z,100950.78
2023-02-16T11:19:08.842Z,100949.81
2023-02-16T11:21:46.028Z,100951.31
2023-02-16T11:24:25.124Z,100948.47
2023-02-16T11:27:04.563Z,100942.06
2023-02-16T11:29:34.240Z,100938.91
2023-02-16T11:32:10.219Z,100927.41
2023-02-16T11:34:42.404Z,100927.63
2023-02-16T11:41:26.878Z,100923.09
2023-02-16T11:43:55.146Z,100911.50
2023-02-16T11:46:24.909Z,100922.75
2023-02-16T11:48:53.404Z,100912.56
2023-02-16T11:51:33.084Z,100898.97
2023-02-16T11:54:04.015Z,100894.72
2023-02-16T11:56:33.384Z,100891.69
2023-02-16T11:59:13.829Z,100888.66
2023-02-16T12:01:59.917Z,100890.38
2023-02-16T12:04:44.030Z,100886.44
2023-02-16T12:07:26.890Z,100877.84
2023-02-16T12:10:03.479Z,100874.25
2023-02-16T12:12:39.986Z,100887.84
2023-02-16T12:15:19.264Z,100901.97
2023-02-16T12:18:06.136Z,100880.81
2023-02-16T12:20:42.947Z,100887.69
2023-02-16T12:23:23.563Z,100886.78
2023-02-16T12:26:02.327Z,100891.84
2023-02-16T12:28:41.905Z,100874.44
2023-02-16T12:31:21.990Z,100884.97
2023-02-16T12:33:59.386Z,100875.22
2023-02-16T12:36:53.111Z,100877.91
2023-02-16T12:39:28.707Z,100872.16
2023-02-16T12:42:09.432Z,100873.69
2023-02-16T12:44:42.557Z,100874.72
2023-02-16T12:47:15.397Z,100866.94
2023-02-16T12:49:53.310Z,100868.47
2023-02-16T12:52:30.349Z,100862.06
2023-02-16T12:55:12.632Z,100858.19
2023-02-16T12:57:46.091Z,100857.97
2023-02-16T13:00:22.505Z,100847.13
2023-02-16T13:02:56.759Z,100853.44
2023-02-16T13:05:31.479Z,100843.75
2023-02-16T13:08:06.687Z,100836.91
2023-02-16T13:10:38.113Z,100836.72
2023-02-16T13:13:10.448Z,100832.09
2023-02-16T13:15:41.363Z,100822.59
2023-02-16T13:18:20.507Z,100823.31
2023-02-16T13:20:53.817Z,100826.56
2023-02-16T13:23:44.717Z,100820.84
2023-02-16T13:26:33.976Z,100819.66
2023-02-16T13:29:27.185Z,100810.81
2023-02-16T13:32:07.055Z,100809.09
2023-02-16T13:34:53.527Z,100805.91
2023-02-16T13:37:37.407Z,100813.19
2023-02-16T13:40:28.855Z,100798.16
2023-02-16T13:43:12.316Z,100800.69
2023-02-16T13:45:43.532Z,100793.16
2023-02-16T13:48:17.255Z,100790.69
2023-02-16T13:50:47.113Z,100785.19
2023-02-16T13:53:21.989Z,100781.34
2023-02-16T13:55:50.707Z,100787.34
2023-02-16T13:58:30.782Z,100775.19
2023-02-16T14:00:58.955Z,100768.81
2023-02-16T14:03:39.285Z,100767.06
2023-02-16T14:06:32.186Z,100761.09
2023-02-16T14:09:46.458Z,100771.28
2023-02-16T14:12:19.701Z,100766.22
2023-02-16T14:14:58.556Z,100760.28
2023-02-16T14:17:29.347Z,100770.03
2023-02-16T14:19:58.906Z,100768.41
2023-02-16T14:22:34.288Z,100763.44
2023-02-16T14:25:06.577Z,100758.19
2023-02-16T14:27:47.622Z,100759.75
2023-02-16T14:30:27.202Z,100757.59
2023-02-16T14:33:00.317Z,100759.56
2023-02-16T14:35:33.837Z,100752.59
2023-02-16T14:38:03.161Z,100747.56
2023-02-16T14:40:49.261Z,100749.72
2023-02-16T14:43:31.558Z,100759.84
2023-02-16T14:46:35.081Z,100756.03
2023-02-16T14:49:25.850Z,100746.00
2023-02-16T14:52:29.947Z,100731.19
2023-02-16T14:55:24.041Z,100748.88
2023-02-16T14:57:57.398Z,100750.94
2023-02-16T15:00:35.651Z,100745.53
2023-02-16T15:03:14.411Z,100746.59
2023-02-16T15:05:44.156Z,100737.44
2023-02-16T15:08:17.287Z,100733.53
2023-02-16T15:10:47.073Z,100745.78
2023-02-16T15:13:22.195Z,100742.16
2023-02-16T15:15:53.424Z,100719.38
2023-02-16T15:18:25.204Z,100738.19
2023-02-16T15:20:55.770Z,100726.25
2023-02-16T15:23:25.738Z,100727.19
2023-02-16T15:25:56.842Z,100735.56
2023-02-16T15:28:27.623Z,100733.50
2023-02-16T15:30:58.264Z,100729.72
2023-02-16T15:33:37.087Z,100730.91
2023-02-16T15:36:08.896Z,100724.94
2023-02-16T15:38:39.058Z,100732.97
2023-02-16T15:41:08.885Z,100710.88
2023-02-16T15:43:40.451Z,100695.81
2023-02-16T15:46:15.858Z,100712.16
2023-02-16T15:48:43.723Z,100709.13
2023-02-16T15:51:16.605Z,100708.34
2023-02-16T15:53:51.328Z,100706.38
2023-02-16T15:56:28.893Z,100720.28
2023-02-16T15:59:00.806Z,100716.25
2023-02-16T16:01:33.954Z,100701.97
2023-02-16T16:04:04.276Z,100709.38
2023-02-16T16:06:38.049Z,100717.50
2023-02-16T16:09:08.413Z,100717.50
2023-02-16T16:11:38.013Z,100711.97
2023-02-16T16:14:08.140Z,100722.94
2023-02-16T16:16:36.755Z,100718.19
2023-02-16T16:19:09.585Z,100714.78
2023-02-16T16:21:48.197Z,100716.38
2023-02-16T16:24:33.614Z,100716.84
2023-02-16T16:27:05.397Z,100729.06
2023-02-16T16:29:37.287Z,100701.59
2023-02-16T16:32:07.239Z,100676.06
2023-02-16T16:34:37.728Z,100736.97
2023-02-16T16:37:08.346Z,100723.91
2023-02-16T16:39:40.367Z,100726.63
2023-02-16T16:42:23.513Z,100730.31
2023-02-16T16:45:02.289Z,100725.75
2023-02-16T16:47:34.397Z,100701.53
2023-02-16T16:50:06.688Z,100731.44
2023-02-16T16:52:43.016Z,100733.13
2023-02-16T16:55:27.048Z,100725.28
2023-02-16T16:57:56.700Z,100734.56
2023-02-16T17:00:27.856Z,100732.81
2023-02-16T17:02:55.565Z,100745.97
2023-02-16T17:05:23.294Z,100730.75
2023-02-16T17:07:51.782Z,100744.75
2023-02-16T17:10:22.293Z,100739.44
2023-02-16T17:12:53.982Z,100725.53
2023-02-16T17:15:38.885Z,100738.72
2023-02-16T17:18:08.191Z,100727.28
2023-02-16T17:20:35.874Z,100722.59
2023-02-16T17:23:05.313Z,100720.47
2023-02-16T17:25:34.858Z,100726.84
2023-02-16T17:28:03.589Z,100631.50
2023-02-16T17:30:31.799Z,100742.09
2023-02-16T17:33:00.993Z,100738.13
2023-02-16T17:35:29.253Z,100718.00
2023-02-16T17:37:57.030Z,100728.88
2023-02-16T17:40:26.063Z,100701.50
2023-02-16T17:42:53.791Z,100738.91
2023-02-16T17:45:23.992Z,100726.16
2023-02-16T17:47:53.140Z,100730.38
2023-02-16T17:50:22.296Z,100729.47
2023-02-16T17:52:50.024Z,100726.47
2023-02-16T17:55:17.804Z,100721.34
2023-02-16T17:57:45.572Z,100735.19
2023-02-16T18:00:18.307Z,100735.53
2023-02-16T18:02:45.971Z,100736.78
2023-02-16T18:05:13.871Z,100739.22
2023-02-16T18:07:42.896Z,100738.91
2023-02-16T18:10:18.465Z,100749.03
2023-02-16T18:12:46.400Z,100746.38
2023-02-16T18:15:14.505Z,100738.72
2023-02-16T18:17:42.655Z,100747.31
2023-02-16T18:20:15.748Z,100751.94
2023-02-16T18:22:44.797Z,100741.78
2023-02-16T18:25:12.620Z,100747.78
2023-02-16T18:27:40.312Z,100754.44
2023-02-16T18:30:09.897Z,100726.28
2023-02-16T18:32:37.834Z,100744.50
2023-02-16T18:35:06.439Z,100747.34
2023-02-16T18:37:34.105Z,100737.81
2023-02-16T18:40:03.461Z,100736.44
2023-02-16T18:42:31.199Z,100728.78
2023-02-16T18:44:58.905Z,100728.22
2023-02-16T18:47:26.584Z,100731.88
2023-02-16T18:49:54.393Z,100742.25
2023-02-16T18:52:22.126Z,100737.59
2023-02-16T18:54:49.822Z,100732.53
2023-02-16T18:57:18.813Z,100723.34
2023-02-16T18:59:46.529Z,100726.41
2023-02-16T19:02:14.163Z,100701.81
2023-02-16T19:04:41.941Z,100715.75
2023-02-16T19:07:09.838Z,100716.97
2023-02-16T19:09:37.599Z,100720.31
2023-02-16T19:12:05.656Z,100726.97
2023-02-16T19:14:34.923Z,100732.91
2023-02-16T19:17:02.615Z,100730.50
2023-02-16T19:19:31.093Z,100737.56
2023-02-16T19:21:58.821Z,100735.41
2023-02-16T19:24:26.672Z,100740.13
2023-02-16T19:26:54.560Z,100737.81
2023-02-16T19:29:22.259Z,100742.75
2023-02-16T19:31:51.373Z,100745.78
2023-02-16T19:34:19.085Z,100741.34
2023-02-16T19:36:46.807Z,100741.94
2023-02-16T19:39:14.535Z,100740.59
2023-02-16T19:41:43.946Z,100733.63
2023-02-16T19:44:13.902Z,100740.28
2023-02-16T19:46:42.545Z,100738.97
2023-02-16T19:49:13.900Z,100744.47
2023-02-16T19:51:41.586Z,100747.81
2023-02-16T19:54:09.354Z,100749.84
2023-02-16T19:56:40.404Z,100747.66
2023-02-16T19:59:09.715Z,100761.81
2023-02-16T20:01:37.458Z,100763.47
2023-02-16T20:04:05.531Z,100755.81
2023-02-16T20:06:39.085Z,100758.53
2023-02-16T20:09:06.906Z,100756.47
2023-02-16T20:11:35.102Z,100756.97
2023-02-16T20:14:02.926Z,100760.97
2023-02-16T20:16:30.944Z,100750.56
2023-02-16T20:19:00.282Z,100756.56
2023-02-16T20:21:29.767Z,100755.06
2023-02-16T20:24:01.234Z,100751.81
2023-02-16T20:26:33.880Z,100750.69
2023-02-16T20:29:04.389Z,100747.13
2023-02-16T20:31:35.717Z,100739.28
2023-02-16T20:34:04.197Z,100731.66
2023-02-16T20:36:32.523Z,100697.78
2023-02-16T20:39:01.497Z,100735.97
2023-02-16T20:41:29.207Z,100729.00
2023-02-16T20:43:56.884Z,100721.84
2023-02-16T20:46:25.929Z,100728.13
2023-02-16T20:48:53.938Z,100722.25
2023-02-16T20:51:21.867Z,100711.28
2023-02-16T20:53:49.898Z,100728.88
2023-02-16T20:56:21.589Z,100731.88
2023-02-16T20:58:50.452Z,100699.81
2023-02-16T21:01:22.043Z,100734.09
2023-02-16T21:03:50.104Z,100729.75
2023-02-16T21:06:18.295Z,100727.06
2023-02-16T21:08:46.359Z,100725.38
2023-02-16T21:11:14.756Z,100690.38
2023-02-16T21:13:44.006Z,100719.38
2023-02-16T21:16:13.787Z,100725.59
2023-02-16T21:18:43.507Z,100723.22
2023-02-16T21:21:15.334Z,100713.50
2023-02-16T21:23:43.460Z,100723.72
2023-02-16T21:26:11.488Z,100702.66
2023-02-16T21:28:39.508Z,100715.47
2023-02-16T21:31:10.950Z,100711.09
2023-02-16T21:33:39.402Z,100708.41
2023-02-16T21:36:09.323Z,100700.53
2023-02-16T21:38:40.140Z,100702.94
2023-02-16T21:41:24.580Z,100700.25
2023-02-16T21:43:58.113Z,100713.19
2023-02-16T21:46:28.099Z,100696.31
2023-02-16T21:48:57.187Z,100692.09
2023-02-16T21:51:27.919Z,100698.03
2023-02-16T21:53:55.748Z,100685.88
2023-02-16T21:56:30.366Z,100683.03
2023-02-16T21:58:58.581Z,100684.41
2023-02-16T22:01:29.620Z,100689.50
2023-02-16T22:03:59.174Z,100681.88
2023-02-16T22:06:28.604Z,100681.38
2023-02-16T22:08:56.683Z,100670.19
2023-02-16T22:11:24.451Z,100663.75
2023-02-16T22:13:55.027Z,100675.63
2023-02-16T22:16:23.310Z,100680.88
2023-02-16T22:18:57.572Z,100676.22
2023-02-16T22:21:25.349Z,100671.56
2023-02-16T22:23:53.068Z,100668.47
2023-02-16T22:26:23.532Z,100671.84
2023-02-16T22:28:51.531Z,100666.19
2023-02-16T22:31:19.368Z,100667.69
2023-02-16T22:33:47.240Z,100664.84
2023-02-16T22:36:16.743Z,100667.59
2023-02-16T22:38:45.294Z,100661.25
2023-02-16T22:41:13.395Z,100670.19
2023-02-16T22:43:41.442Z,100665.63
2023-02-16T22:46:13.877Z,100667.91
2023-02-16T22:48:41.545Z,100667.00
2023-02-16T22:51:12.006Z,100666.16
2023-02-16T22:53:41.080Z,100673.38
2023-02-16T22:56:10.629Z,100676.84
2023-02-16T22:58:38.270Z,100673.22
2023-02-16T23:01:12.061Z,100673.38
2023-02-16T23:03:40.001Z,100671.47
2023-02-16T23:06:12.832Z,100673.78
2023-02-16T23:08:42.123Z,100686.09
2023-02-16T23:11:09.756Z,100689.47
2023-02-16T23:13:37.798Z,100677.47
2023-02-16T23:16:08.500Z,100678.63
2023-02-16T23:18:36.365Z,100674.78
2023-02-16T23:21:08.540Z,100674.22
2023-02-16T23:23:36.463Z,100669.31
2023-02-16T23:26:07.433Z,100646.09
2023-02-16T23:28:35.606Z,100668.81
2023-02-16T23:31:03.438Z,100658.06
2023-02-16T23:33:31.194Z,100659.69
2023-02-16T23:35:59.119Z,100669.56
2023-02-16T23:38:26.831Z,100669.78
2023-02-16T23:40:58.639Z,100658.72
2023-02-16T23:43:27.864Z,100669.25
2023-02-16T23:45:56.311Z,100663.50
2023-02-16T23:48:24.847Z,100653.75
2023-02-16T23:50:53.490Z,100665.09
2023-02-16T23:53:22.574Z,100661.75
2023-02-16T23:55:57.946Z,100654.19
2023-02-16T23:58:28.687Z,100644.88
